Time;durP1;ratioP1;P1;durP2;ratioP2;P2;SDS_P1;SDS_P2;PMS_P1;PMS_P2;Temp;Humidity;BMP_temperature;BMP_pressure;BME280_temperature;BME280_humidity;BME280_pressure;Samples;Min_cycle;Max_cycle;Signal;HPM_P1;HPM_P2
2023/04/16 00:05:20;;;;;;;11.57;5.20;;;;;;;8.95;100.00;100973.06;31346429;28;20782;-78
2023/04/16 00:20:22;;;;;;;7.73;4.50;;;;;;;8.78;100.00;100982.69;31347270;28;20056;-76
2023/04/16 00:35:24;;;;;;;5.43;3.63;;;;;;;8.73;100.00;100966.09;31346484;28;20750;-77
2023/04/16 00:50:26;;;;;;;7.90;3.97;;;;;;;8.49;100.00;100962.94;31335926;28;20553;-78
2023/04/16 01:05:29;;;;;;;8.30;4.20;;;;;;;8.18;100.00;100955.47;31330280;28;20454;-78
2023/04/16 01:20:34;;;;;;;6.60;4.50;;;;;;;8.14;100.00;100962.78;31332266;28;20110;-78
2023/04/16 01:35:36;;;;;;;12.30;6.00;;;;;;;7.95;100.00;100963.88;31339404;28;20495;-78
2023/04/16 01:50:38;;;;;;;9.03;4.50;;;;;;;7.86;100.00;100958.78;31339082;28;20049;-77
2023/04/16 02:05:40;;;;;;;7.27;4.67;;;;;;;7.67;100.00;100934.75;31330838;28;20101;-77
2023/04/16 02:20:44;;;;;;;9.40;5.23;;;;;;;7.56;100.00;100950.13;31346449;28;20569;-79
2023/04/16 02:35:47;;;;;;;8.43;5.67;;;;;;;7.55;100.00;100954.00;31343669;28;20122;-77
2023/04/16 02:50:49;;;;;;;8.43;5.00;;;;;;;7.45;100.00;100965.50;31355789;28;20048;-77
2023/04/16 03:05:51;;;;;;;12.83;5.97;;;;;;;7.47;100.00;100984.81;31358391;28;20136;-77
2023/04/16 03:20:53;;;;;;;7.87;4.90;;;;;;;7.40;100.00;101004.44;31343275;28;20091;-76
2023/04/16 03:35:56;;;;;;;9.13;5.37;;;;;;;7.49;100.00;101004.13;31345345;28;20086;-76
2023/04/16 03:50:58;;;;;;;9.90;5.37;;;;;;;7.65;100.00;101012.72;31335508;28;20483;-77
2023/04/16 04:06:00;;;;;;;7.83;4.90;;;;;;;7.88;100.00;101005.16;31352502;28;20058;-76
2023/04/16 04:21:06;;;;;;;10.33;5.50;;;;;;;8.27;100.00;101009.97;31351940;28;20726;-76
2023/04/16 04:36:08;;;;;;;10.43;6.47;;;;;;;8.23;100.00;101040.88;31346290;28;20110;-77
2023/04/16 04:51:10;;;;;;;7.13;4.77;;;;;;;8.38;100.00;101024.34;31335384;28;20058;-77
2023/04/16 05:06:12;;;;;;;8.23;4.87;;;;;;;8.60;100.00;101025.19;31327531;28;20068;-77
2023/04/16 05:21:14;;;;;;;7.10;4.17;;;;;;;8.81;100.00;101035.31;31324521;28;20040;-77
2023/04/16 05:36:16;;;;;;;8.77;5.93;;;;;;;8.92;100.00;101025.28;31317191;28;20505;-77
2023/04/16 05:51:18;;;;;;;8.97;5.17;;;;;;;9.97;100.00;101003.91;31348333;28;20045;-77
2023/04/16 06:06:20;;;;;;;7.73;4.70;;;;;;;10.13;100.00;101027.91;31334008;28;20470;-78
2023/04/16 06:21:22;;;;;;;6.90;4.20;;;;;;;10.28;100.00;101017.81;31328202;28;20095;-78
2023/04/16 06:36:26;;;;;;;6.87;3.67;;;;;;;10.78;100.00;101042.78;31361820;28;20102;-77
2023/04/16 06:51:28;;;;;;;8.33;3.97;;;;;;;12.00;100.00;101057.78;31384442;28;20061;-76
2023/04/16 07:06:30;;;;;;;4.50;3.03;;;;;;;12.02;100.00;101060.09;31363275;28;20059;-77
2023/04/16 07:21:32;;;;;;;5.07;2.70;;;;;;;12.30;100.00;101051.59;31358507;28;20053;-78
2023/04/16 07:36:35;;;;;;;9.80;2.67;;;;;;;12.28;100.00;101040.38;31362964;28;20103;-76
2023/04/16 07:51:36;;;;;;;4.97;2.70;;;;;;;12.62;100.00;101027.47;31380803;28;20057;-79
2023/04/16 08:06:38;;;;;;;4.57;2.50;;;;;;;13.12;100.00;101047.78;31362718;28;20103;-78
2023/04/16 08:21:40;;;;;;;9.17;3.30;;;;;;;14.27;100.00;101020.84;31382789;28;20087;-76
2023/04/16 08:36:42;;;;;;;3.57;2.57;;;;;;;16.00;100.00;101015.22;31372310;28;20425;-79
2023/04/16 08:51:50;;;;;;;4.03;2.80;;;;;;;16.27;100.00;101003.91;31367198;28;20457;-75
2023/04/16 09:06:54;;;;;;;3.37;1.90;;;;;;;15.67;100.00;100993.41;31347901;28;20059;-81
2023/04/16 09:21:56;;;;;;;17.03;5.33;;;;;;;17.04;100.00;100987.03;31343314;28;20060;-75
2023/04/16 09:37:17;;;;;;;3.70;2.00;;;;;;;17.68;100.00;100968.47;31327190;28;20099;-76
2023/04/16 09:52:21;;;;;;;3.63;2.55;;;;;;;18.30;99.00;100984.28;31337705;28;20102;-76
2023/04/16 10:07:27;;;;;;;4.28;1.95;;;;;;;18.48;79.38;100978.84;31361984;28;20087;-77
2023/04/16 10:22:30;;;;;;;4.60;2.30;;;;;;;19.34;80.44;100971.50;31397025;28;20074;-75
2023/04/16 10:37:32;;;;;;;5.15;2.00;;;;;;;19.58;78.75;100963.44;31374329;28;20139;-77
2023/04/16 10:52:33;;;;;;;7.97;2.63;;;;;;;20.45;69.96;100950.84;31382769;28;20103;-75
2023/04/16 11:07:38;;;;;;;5.90;2.42;;;;;;;20.70;64.46;100944.91;31378603;28;20053;-75
2023/04/16 11:22:40;;;;;;;4.72;1.80;;;;;;;19.91;60.84;100938.72;31375667;28;20049;-77
2023/04/16 11:37:43;;;;;;;7.38;2.88;;;;;;;18.58;65.13;100939.19;31342704;28;20399;-77
2023/04/16 11:52:46;;;;;;;3.07;2.10;;;;;;;18.47;72.16;100922.34;31367604;28;20049;-79
2023/04/16 12:07:48;;;;;;;2.87;2.20;;;;;;;18.00;66.24;100920.59;31358581;28;20045;-76
2023/04/16 12:22:51;;;;;;;8.40;2.50;;;;;;;17.87;71.40;100903.44;31374705;28;20547;-80
2023/04/16 12:37:53;;;;;;;9.57;4.30;;;;;;;17.57;75.98;100904.13;31345673;28;20064;-79
2023/04/16 12:52:56;;;;;;;3.90;2.47;;;;;;;17.48;76.02;100909.56;31365061;28;20052;-78
2023/04/16 13:07:58;;;;;;;6.70;2.40;;;;;;;17.70;74.01;100878.19;31360209;28;20053;-78
2023/04/16 13:22:59;;;;;;;5.77;2.50;;;;;;;17.50;79.61;100874.94;31388566;28;20393;-77
2023/04/16 13:38:01;;;;;;;6.33;3.07;;;;;;;17.23;74.06;100872.78;31398416;28;20061;-80
2023/04/16 13:53:04;;;;;;;7.97;3.70;;;;;;;17.26;76.50;100868.34;31406458;28;20070;-77
2023/04/16 14:08:05;;;;;;;3.83;2.03;;;;;;;17.36;73.13;100870.75;31365938;28;20098;-77
2023/04/16 14:23:07;;;;;;;6.33;2.03;;;;;;;17.09;73.51;100876.00;31389149;28;20061;-78
2023/04/16 14:38:10;;;;;;;3.70;2.50;;;;;;;16.87;75.28;100883.41;31357395;28;20094;-77
2023/04/16 14:53:12;;;;;;;4.80;2.37;;;;;;;16.84;78.79;100878.81;31400363;28;20061;-79
2023/04/16 15:08:15;;;;;;;5.03;2.43;;;;;;;16.75;80.74;100881.47;31395353;28;20040;-79
2023/04/16 15:23:16;;;;;;;6.07;2.20;;;;;;;16.53;76.34;100892.34;31400594;28;20382;-78
2023/04/16 15:38:22;;;;;;;4.53;2.07;;;;;;;16.34;72.63;100874.91;31374460;28;20095;-79
2023/04/16 15:53:24;;;;;;;;;;;;;;;16.09;62.84;100877.63;31388306;28;20130;-80
2023/04/16 16:08:28;;;;;;;8.10;2.00;;;;;;;15.30;65.69;100895.47;31378523;28;19951;-78
2023/04/16 16:23:30;;;;;;;2.07;1.47;;;;;;;14.93;58.52;100889.38;31378621;28;20106;-79
2023/04/16 16:38:32;;;;;;;5.80;2.03;;;;;;;14.61;56.93;100912.03;31358061;28;20061;-78
2023/04/16 16:53:34;;;;;;;2.30;1.70;;;;;;;14.40;54.67;100923.41;31364014;28;20508;-81
2023/04/16 17:08:35;;;;;;;4.93;1.90;;;;;;;14.05;51.27;100937.81;31367143;28;20095;-79
2023/04/16 17:23:37;;;;;;;4.97;2.00;;;;;;;13.65;52.43;100956.94;31387816;28;20057;-79
2023/04/16 17:38:41;;;;;;;6.50;1.73;;;;;;;13.43;56.29;100953.06;31369788;28;20069;-80
2023/04/16 17:53:45;;;;;;;3.50;1.70;;;;;;;13.40;55.21;100959.34;31372931;28;20067;-80
2023/04/16 18:08:47;;;;;;;3.33;1.80;;;;;;;13.12;55.87;100966.78;31351710;28;20096;-79
2023/04/16 18:23:49;;;;;;;8.13;2.17;;;;;;;12.79;56.07;100964.97;31396019;28;20053;-78
2023/04/16 18:38:51;;;;;;;5.23;1.70;;;;;;;12.53;58.68;100958.34;31399026;28;20102;-78
2023/04/16 18:54:02;;;;;;;3.83;1.90;;;;;;;12.37;60.49;100961.66;31402776;28;20147;-80
2023/04/16 19:09:04;;;;;;;7.13;2.13;;;;;;;12.09;63.24;100979.13;31346540;28;20049;-78
2023/04/16 19:24:06;;;;;;;5.10;2.03;;;;;;;11.91;66.46;100962.25;31330774;28;20505;-80
2023/04/16 19:39:08;;;;;;;3.60;2.23;;;;;;;11.76;69.87;100964.34;31367551;28;20123;-78
2023/04/16 19:54:12;;;;;;;10.53;2.03;;;;;;;11.65;74.33;100968.31;31327241;28;20088;-77
2023/04/16 20:09:14;;;;;;;7.00;2.33;;;;;;;11.88;77.07;100977.44;31324733;28;20102;-77
2023/04/16 20:24:15;;;;;;;5.00;3.57;;;;;;;11.40;81.58;100972.06;31325106;28;20084;-79
2023/04/16 20:39:19;;;;;;;2.43;1.77;;;;;;;11.21;85.95;100948.94;31315636;28;21754;-79
2023/04/16 20:54:23;;;;;;;4.07;1.80;;;;;;;11.04;89.98;100947.16;31308350;28;20428;-81
2023/04/16 21:09:24;;;;;;;5.00;2.70;;;;;;;10.76;93.76;100928.34;31300357;28;20057;-80
2023/04/16 21:24:26;;;;;;;3.87;3.10;;;;;;;10.82;95.57;100911.22;31300624;28;20432;-80
2023/04/16 21:39:29;;;;;;;5.13;2.80;;;;;;;10.71;99.25;100917.91;31309024;28;20457;-80
2023/04/16 21:54:31;;;;;;;5.03;2.10;;;;;;;10.22;100.00;100900.75;31303306;28;20045;-78
2023/04/16 22:09:37;;;;;;;3.80;2.00;;;;;;;10.04;100.00;100879.13;31317178;28;20045;-81
2023/04/16 22:24:39;;;;;;;3.27;2.17;;;;;;;10.10;100.00;100876.78;31315271;28;20044;-78
2023/04/16 22:39:41;;;;;;;3.67;2.03;;;;;;;10.00;100.00;100861.31;31289490;28;20100;-78
2023/04/16 22:54:43;;;;;;;6.30;2.57;;;;;;;10.14;100.00;100855.84;31318782;28;20049;-77
2023/04/16 23:09:44;;;;;;;3.30;2.00;;;;;;;9.90;100.00;100849.38;31358561;28;20045;-79
2023/04/16 23:24:46;;;;;;;3.30;1.57;;;;;;;9.64;100.00;100839.81;31318626;28;20045;-77
2023/04/16 23:39:48;;;;;;;3.77;1.80;;;;;;;9.53;100.00;100849.91;31325246;28;20394;-80
2023/04/16 23:54:50;;;;;;;3.00;1.80;;;;;;;9.35;100.00;100851.91;31346406;28;20053;-79
